createdAt,value
2024-01-28T00:02:09.596Z,102176.89
2024-01-28T00:07:12.805Z,102175.59
2024-01-28T00:12:15.802Z,102182.16
2024-01-28T00:17:18.721Z,102189.17
2024-01-28T00:22:22.095Z,102200.45
2024-01-28T00:27:25.246Z,102211.15
2024-01-28T00:32:28.519Z,102220.92
2024-01-28T00:37:32.480Z,102230.30
2024-01-28T00:42:35.656Z,102236.01
2024-01-28T00:47:40.605Z,102242.80
2024-01-28T00:52:45.392Z,102245.19
2024-01-28T00:57:48.524Z,102256.65
2024-01-28T01:02:53.345Z,102256.67
2024-01-28T01:07:56.476Z,102259.42
2024-01-28T01:12:59.499Z,102261.63
2024-01-28T01:18:02.803Z,102264.91
2024-01-28T01:23:06.057Z,102264.11
2024-01-28T01:28:09.287Z,102264.38
2024-01-28T01:33:12.737Z,102269.01
2024-01-28T01:38:15.951Z,102270.23
2024-01-28T01:43:18.974Z,102271.93
2024-01-28T01:48:22.467Z,102277.01
2024-01-28T01:53:25.583Z,102275.95
2024-01-28T01:58:29.186Z,102279.05
2024-01-28T02:03:32.715Z,102281.40
2024-01-28T02:08:36.052Z,102283.68
2024-01-28T02:13:39.284Z,102279.15
2024-01-28T02:18:42.807Z,102279.09
2024-01-28T02:23:46.057Z,102278.17
2024-01-28T02:28:49.140Z,102278.04
2024-01-28T02:33:52.223Z,102278.19
2024-01-28T02:39:00.292Z,102281.61
2024-01-28T02:44:03.547Z,102292.11
2024-01-28T02:49:06.646Z,102297.84
2024-01-28T02:54:09.806Z,102311.54
2024-01-28T02:59:14.456Z,102327.34
2024-01-28T03:04:17.513Z,102331.77
2024-01-28T03:09:20.761Z,102341.23
2024-01-28T03:14:24.062Z,102352.70
2024-01-28T03:19:27.533Z,102364.05
2024-01-28T03:24:30.594Z,102369.72
2024-01-28T03:29:33.613Z,102368.32
2024-01-28T03:34:37.686Z,102359.64
2024-01-28T03:39:40.969Z,102362.92
2024-01-28T03:44:44.555Z,102367.29
2024-01-28T03:49:47.606Z,102365.96
2024-01-28T03:54:50.604Z,102372.77
2024-01-28T03:59:53.605Z,102371.77
2024-01-28T04:04:56.910Z,102365.80
2024-01-28T04:09:59.989Z,102372.83
2024-01-28T04:15:03.058Z,102368.90
2024-01-28T04:20:07.154Z,102372.75
2024-01-28T04:25:10.591Z,102380.77
2024-01-28T04:30:13.951Z,102388.52
2024-01-28T04:35:16.934Z,102389.98
2024-01-28T04:40:20.083Z,102399.63
2024-01-28T04:45:23.589Z,102410.08
2024-01-28T04:50:26.646Z,102417.21
2024-01-28T04:55:29.745Z,102424.85
2024-01-28T05:00:32.780Z,102433.90
2024-01-28T05:05:35.911Z,102445.41
2024-01-28T05:10:39.884Z,102450.31
2024-01-28T05:15:44.347Z,102453.46
2024-01-28T05:20:48.610Z,102461.27
2024-01-28T05:25:52.029Z,102467.38
2024-01-28T05:30:55.110Z,102463.91
2024-01-28T05:35:58.953Z,102457.95
2024-01-28T05:41:22.234Z,102455.55
2024-01-28T05:46:25.557Z,102469.05
2024-01-28T05:51:28.937Z,102473.23
2024-01-28T05:56:32.149Z,102478.38
2024-01-28T06:01:35.203Z,102485.08
2024-01-28T06:06:38.329Z,102491.06
2024-01-28T06:11:43.495Z,102494.35
2024-01-28T06:16:46.538Z,102502.34
2024-01-28T06:21:50.741Z,102509.92
2024-01-28T06:26:55.782Z,102517.38
2024-01-28T06:31:59.126Z,102517.08
2024-01-28T06:37:03.067Z,102516.80
2024-01-28T06:42:06.176Z,102519.84
2024-01-28T06:47:09.362Z,102518.42
2024-01-28T06:52:12.339Z,102522.43
2024-01-28T06:57:15.590Z,102522.89
2024-01-28T07:02:18.744Z,102532.98
2024-01-28T07:07:21.868Z,102534.89
2024-01-28T07:12:25.118Z,102534.88
2024-01-28T07:17:28.572Z,102535.17
2024-01-28T07:22:31.631Z,102538.77
2024-01-28T07:27:34.781Z,102544.98
2024-01-28T07:32:37.778Z,102547.00
2024-01-28T07:37:41.033Z,102546.14
2024-01-28T07:42:44.119Z,102548.05
2024-01-28T07:47:47.634Z,102542.96
2024-01-28T07:52:50.613Z,102552.27
2024-01-28T07:57:56.333Z,102552.45
2024-01-28T08:02:59.940Z,102555.83
2024-01-28T08:08:03.123Z,102562.10
2024-01-28T08:13:06.095Z,102558.71
2024-01-28T08:18:09.111Z,102569.17
2024-01-28T08:23:13.069Z,102573.39
2024-01-28T08:28:16.153Z,102579.34
2024-01-28T08:33:20.014Z,102588.85
2024-01-28T08:38:23.197Z,102592.54
2024-01-28T08:43:26.131Z,102594.06
2024-01-28T08:48:29.219Z,102595.20
2024-01-28T08:53:32.311Z,102598.16
2024-01-28T08:58:37.011Z,102602.27
2024-01-28T09:03:41.005Z,102613.11
2024-01-28T09:08:44.351Z,102614.85
2024-01-28T09:13:47.407Z,102612.66
2024-01-28T09:18:50.407Z,102618.63
2024-01-28T09:23:53.485Z,102618.02
2024-01-28T09:28:56.760Z,102616.35
2024-01-28T09:34:00.123Z,102615.48
2024-01-28T09:39:03.498Z,102613.17
2024-01-28T09:44:08.204Z,102619.62
2024-01-28T09:49:13.407Z,102623.53
2024-01-28T09:54:17.010Z,102625.73
2024-01-28T09:59:20.030Z,102636.09
2024-01-28T10:04:23.554Z,102636.77
2024-01-28T10:09:27.503Z,102634.89
2024-01-28T10:14:30.441Z,102636.60
2024-01-28T10:19:37.053Z,102637.79
2024-01-28T10:24:43.685Z,102646.21
2024-01-28T10:29:48.857Z,102640.56
2024-01-28T10:34:52.144Z,102640.52
2024-01-28T10:39:57.824Z,102643.97
2024-01-28T10:45:01.264Z,102655.84
2024-01-28T10:50:11.701Z,102657.80
2024-01-28T10:55:16.251Z,102654.66
2024-01-28T11:00:22.179Z,102656.20
2024-01-28T11:05:26.753Z,102660.46
2024-01-28T11:10:30.929Z,102663.43
2024-01-28T11:15:34.459Z,102663.10
2024-01-28T11:20:37.808Z,102659.80
2024-01-28T11:25:41.015Z,102664.66
2024-01-28T11:30:47.831Z,102675.57
2024-01-28T11:35:50.855Z,102680.08
2024-01-28T11:40:59.221Z,102681.45
2024-01-28T11:46:02.424Z,102682.48
2024-01-28T11:51:06.129Z,102682.21
2024-01-28T11:56:09.303Z,102679.91
2024-01-28T12:01:12.357Z,102677.58
2024-01-28T12:06:17.387Z,102680.30
2024-01-28T12:11:26.120Z,102680.64
2024-01-28T12:16:29.021Z,102696.73
2024-01-28T12:21:32.103Z,102702.74
2024-01-28T12:26:35.359Z,102705.39
2024-01-28T12:31:38.430Z,102699.61
2024-01-28T12:36:41.871Z,102701.58
2024-01-28T12:41:44.968Z,102698.19
2024-01-28T12:46:48.901Z,102701.71
2024-01-28T12:51:52.618Z,102698.46
2024-01-28T12:56:55.651Z,102695.84
2024-01-28T13:01:58.684Z,102693.84
2024-01-28T13:07:02.040Z,102690.63
2024-01-28T13:12:05.866Z,102695.84
2024-01-28T13:17:09.630Z,102696.77
2024-01-28T13:22:12.680Z,102699.78
2024-01-28T13:27:18.583Z,102699.84
2024-01-28T13:32:21.954Z,102696.42
2024-01-28T13:37:25.101Z,102707.85
2024-01-28T13:42:28.209Z,102713.23
2024-01-28T13:47:31.977Z,102714.05
2024-01-28T13:52:36.463Z,102711.15
2024-01-28T13:57:40.217Z,102713.06
2024-01-28T14:02:45.057Z,102711.23
2024-01-28T14:07:48.229Z,102712.79
2024-01-28T14:12:51.460Z,102706.87
2024-01-28T14:17:54.929Z,102711.45
2024-01-28T14:22:57.970Z,102716.66
2024-01-28T14:28:01.079Z,102719.04
2024-01-28T14:33:04.813Z,102713.56
2024-01-28T14:38:07.971Z,102708.73
2024-01-28T14:43:11.055Z,102714.46
2024-01-28T14:48:14.423Z,102712.42
2024-01-28T14:53:18.018Z,102708.44
2024-01-28T14:58:20.945Z,102708.23
2024-01-28T15:03:24.053Z,102713.11
2024-01-28T15:08:27.160Z,102711.73
2024-01-28T15:13:30.170Z,102714.27
2024-01-28T15:18:33.351Z,102719.22
2024-01-28T15:23:40.167Z,102718.54
2024-01-28T15:28:43.277Z,102723.13
2024-01-28T15:33:46.455Z,102731.10
2024-01-28T15:38:49.629Z,102739.41
2024-01-28T15:43:53.037Z,102744.34
2024-01-28T15:48:56.421Z,102746.23
2024-01-28T15:53:59.655Z,102737.61
2024-01-28T15:59:02.757Z,102737.65
2024-01-28T16:04:05.951Z,102733.98
2024-01-28T16:09:09.887Z,102725.23
2024-01-28T16:14:12.818Z,102726.61
2024-01-28T16:19:16.064Z,102728.61
2024-01-28T16:24:19.541Z,102734.41
2024-01-28T16:29:23.177Z,102735.63
2024-01-28T16:34:26.709Z,102738.67
2024-01-28T16:39:29.937Z,102751.30
2024-01-28T16:44:32.980Z,102757.07
2024-01-28T16:49:36.226Z,102762.58
2024-01-28T16:54:39.403Z,102766.80
2024-01-28T16:59:42.420Z,102776.93
2024-01-28T17:04:45.442Z,102783.14
2024-01-28T17:09:48.574Z,102784.40
2024-01-28T17:14:51.742Z,102787.20
2024-01-28T17:19:55.294Z,102788.58
2024-01-28T17:24:58.688Z,102794.31
2024-01-28T17:30:01.768Z,102792.48
2024-01-28T17:35:06.351Z,102791.54
2024-01-28T17:40:10.483Z,102796.70
2024-01-28T17:45:13.887Z,102801.41
2024-01-28T17:50:17.053Z,102800.06
2024-01-28T17:55:20.498Z,102801.05
2024-01-28T18:00:23.688Z,102793.98
2024-01-28T18:05:26.672Z,102790.66
2024-01-28T18:10:30.651Z,102794.52
2024-01-28T18:15:34.684Z,102786.33
2024-01-28T18:20:37.688Z,102785.28
2024-01-28T18:25:41.132Z,102787.17
2024-01-28T18:30:44.272Z,102778.90
2024-01-28T18:35:52.350Z,102791.27
2024-01-28T18:40:55.749Z,102804.05
2024-01-28T18:45:58.977Z,102803.43
2024-01-28T18:51:02.219Z,102804.02
2024-01-28T18:56:06.536Z,102806.02
2024-01-28T19:01:11.377Z,102809.84
2024-01-28T19:06:15.714Z,102809.45
2024-01-28T19:11:19.628Z,102805.77
2024-01-28T19:16:22.724Z,102806.08
2024-01-28T19:21:26.006Z,102798.20
2024-01-28T19:26:30.175Z,102801.40
2024-01-28T19:31:33.750Z,102802.06
2024-01-28T19:36:37.234Z,102804.13
2024-01-28T19:41:40.354Z,102796.20
2024-01-28T19:46:43.410Z,102795.70
2024-01-28T19:51:46.471Z,102800.37
2024-01-28T19:56:49.794Z,102796.59
2024-01-28T20:01:54.433Z,102801.72
2024-01-28T20:06:59.462Z,102806.71
2024-01-28T20:12:03.011Z,102809.77
2024-01-28T20:17:08.182Z,102816.30
2024-01-28T20:22:12.447Z,102825.40
2024-01-28T20:27:15.845Z,102816.58
2024-01-28T20:32:18.913Z,102817.41
2024-01-28T20:37:25.171Z,102827.30
2024-01-28T20:42:29.718Z,102829.02
2024-01-28T20:47:33.143Z,102826.13
2024-01-28T20:52:36.293Z,102822.50
2024-01-28T20:57:40.187Z,102813.19
2024-01-28T21:02:43.486Z,102804.70
2024-01-28T21:07:46.613Z,102795.36
2024-01-28T21:12:49.938Z,102776.95
2024-01-28T21:17:55.508Z,102770.27
2024-01-28T21:22:59.893Z,102774.23
2024-01-28T21:28:03.104Z,102785.91
2024-01-28T21:33:06.652Z,102791.15
2024-01-28T21:38:09.989Z,102792.20
2024-01-28T21:43:15.516Z,102795.64
2024-01-28T21:48:18.980Z,102796.92
2024-01-28T21:53:22.022Z,102804.79
2024-01-28T21:58:25.108Z,102814.46
2024-01-28T22:03:29.098Z,102820.55
2024-01-28T22:08:32.302Z,102832.84
2024-01-28T22:13:35.380Z,102832.55
2024-01-28T22:18:39.250Z,102830.20
2024-01-28T22:23:42.520Z,102822.04
2024-01-28T22:28:47.112Z,102818.79
2024-01-28T22:33:50.339Z,102827.20
2024-01-28T22:38:53.621Z,102829.66
2024-01-28T22:43:56.670Z,102832.86
2024-01-28T22:48:59.900Z,102837.23
2024-01-28T22:54:04.571Z,102833.64
2024-01-28T22:59:07.660Z,102831.92
2024-01-28T23:04:10.778Z,102831.73
2024-01-28T23:09:14.664Z,102834.25
2024-01-28T23:14:17.684Z,102834.91
2024-01-28T23:19:20.756Z,102828.58
2024-01-28T23:24:23.852Z,102824.40
2024-01-28T23:29:27.428Z,102823.31
2024-01-28T23:34:30.806Z,102824.21
2024-01-28T23:39:34.410Z,102818.81
2024-01-28T23:44:38.065Z,102817.43
2024-01-28T23:49:42.406Z,102816.80
2024-01-28T23:54:45.660Z,102822.93
2024-01-28T23:59:48.774Z,102819.27
